Time;durP1;ratioP1;P1;durP2;ratioP2;P2;SDS_P1;SDS_P2;PMS_P1;PMS_P2;Temp;Humidity;BMP_temperature;BMP_pressure;BME280_temperature;BME280_humidity;BME280_pressure;Samples;Min_cycle;Max_cycle;Signal;HPM_P1;HPM_P2
2022/05/13 00:01:27;;;;;;;1.62;0.62;;;14.50;96.30;;;;;;4409352;32;20069;-71
2022/05/13 00:03:53;;;;;;;0.32;0.32;;;14.50;96.70;;;;;;4425310;32;20065;-71
2022/05/13 00:06:18;;;;;;;0.47;0.47;;;14.40;96.70;;;;;;4424683;32;20500;-70
2022/05/13 00:08:44;;;;;;;0.30;0.30;;;14.30;96.90;;;;;;4423765;32;20066;-71
2022/05/13 00:11:10;;;;;;;0.20;0.20;;;14.40;97.00;;;;;;4425957;32;21047;-71
2022/05/13 00:13:36;;;;;;;0.30;0.30;;;14.40;97.30;;;;;;4424649;32;20085;-71
2022/05/13 00:16:04;;;;;;;0.40;0.40;;;14.30;97.10;;;;;;4425336;32;20182;-71
2022/05/13 00:18:29;;;;;;;0.40;0.40;;;14.20;97.00;;;;;;4425484;32;20082;-71
2022/05/13 00:20:55;;;;;;;3.40;0.68;;;14.30;97.40;;;;;;4428775;32;20057;-70
2022/05/13 00:23:21;;;;;;;0.37;0.37;;;14.20;97.50;;;;;;4429073;32;20069;-71
2022/05/13 00:25:46;;;;;;;0.35;0.35;;;14.20;97.90;;;;;;4427965;32;20073;-71
2022/05/13 00:28:13;;;;;;;0.82;0.60;;;14.20;97.70;;;;;;4419729;32;20106;-70
2022/05/13 00:30:41;;;;;;;0.40;0.40;;;14.10;98.10;;;;;;4408862;32;20085;-70
2022/05/13 00:33:09;;;;;;;0.43;0.43;;;14.00;98.20;;;;;;4425701;32;20490;-70
2022/05/13 00:35:35;;;;;;;2.95;1.67;;;13.80;98.50;;;;;;4426766;32;20061;-71
2022/05/13 00:38:00;;;;;;;0.35;0.35;;;13.80;98.90;;;;;;4427456;32;20152;-71
2022/05/13 00:40:26;;;;;;;0.40;0.40;;;13.80;99.10;;;;;;4427006;32;20061;-71
2022/05/13 00:42:58;;;;;;;1.85;0.68;;;13.80;98.60;;;;;;4426811;32;20081;-70
2022/05/13 00:45:24;;;;;;;0.30;0.30;;;13.70;98.80;;;;;;4426056;32;20093;-71
2022/05/13 00:47:49;;;;;;;0.37;0.37;;;13.70;99.20;;;;;;4424166;32;20065;-71
2022/05/13 00:50:15;;;;;;;0.40;0.40;;;13.70;99.40;;;;;;4426640;32;20575;-70
2022/05/13 00:52:45;;;;;;;0.62;0.45;;;13.70;99.40;;;;;;4425162;32;20173;-71
2022/05/13 00:55:18;;;;;;;1.25;0.60;;;13.60;99.70;;;;;;4428356;32;20077;-71
2022/05/13 00:57:44;;;;;;;0.30;0.30;;;13.50;99.90;;;;;;4418156;32;20116;-70
2022/05/13 01:00:14;;;;;;;13.55;2.55;;;13.40;99.90;;;;;;4407012;32;20528;-70
2022/05/13 01:02:43;;;;;;;0.52;0.50;;;13.40;99.90;;;;;;4421735;32;20061;-70
2022/05/13 01:05:10;;;;;;;0.30;0.30;;;13.30;99.90;;;;;;4425657;32;20461;-70
2022/05/13 01:07:36;;;;;;;0.50;0.50;;;13.30;99.90;;;;;;4426247;32;20095;-70
2022/05/13 01:10:04;;;;;;;0.20;0.20;;;13.30;99.90;;;;;;4425117;32;20085;-71
2022/05/13 01:12:34;;;;;;;0.62;0.57;;;13.10;99.90;;;;;;4427124;32;20086;-71
2022/05/13 01:15:06;;;;;;;0.55;0.55;;;13.20;99.90;;;;;;4427133;32;20089;-72
2022/05/13 01:18:05;;;;;;;6.37;0.80;;;13.20;99.90;;;;;;4421232;32;20095;-71
2022/05/13 01:20:24;;;;;;;1.70;0.50;;;13.20;99.90;;;;;;4415487;32;20124;-71
2022/05/13 01:22:54;;;;;;;0.90;0.90;;;13.10;99.90;;;;;;4429113;32;20069;-71
2022/05/13 01:25:24;;;;;;;0.40;0.40;;;13.20;99.90;;;;;;4426569;32;20089;-71
2022/05/13 01:27:51;;;;;;;0.43;0.43;;;12.90;99.90;;;;;;4420019;32;20196;-70
2022/05/13 01:30:21;;;;;;;0.28;0.28;;;12.80;99.90;;;;;;4406216;32;20066;-71
2022/05/13 01:32:46;;;;;;;2.10;0.80;;;12.80;99.90;;;;;;4423312;32;20086;-70
2022/05/13 01:35:13;;;;;;;0.37;0.37;;;12.70;99.90;;;;;;4422279;32;20069;-70
2022/05/13 01:37:39;;;;;;;0.47;0.47;;;12.70;99.90;;;;;;4426560;32;20077;-71
2022/05/13 01:40:06;;;;;;;2.72;1.25;;;12.60;99.90;;;;;;4425907;32;20504;-70
2022/05/13 01:42:32;;;;;;;0.50;0.50;;;12.70;99.90;;;;;;4424598;32;20073;-71
2022/05/13 01:44:58;;;;;;;0.30;0.30;;;12.70;99.90;;;;;;4425090;32;20504;-70
2022/05/13 01:47:25;;;;;;;0.85;0.70;;;12.70;99.90;;;;;;4418748;32;20078;-71
2022/05/13 01:49:51;;;;;;;0.50;0.50;;;12.70;99.90;;;;;;4425468;32;20061;-70
2022/05/13 01:52:17;;;;;;;2.40;1.20;;;12.70;99.90;;;;;;4423858;32;20073;-70
2022/05/13 01:54:43;;;;;;;0.40;0.40;;;12.70;99.90;;;;;;4425477;32;20066;-70
2022/05/13 01:57:08;;;;;;;0.37;0.37;;;12.70;99.90;;;;;;4426010;32;20527;-70
2022/05/13 01:59:34;;;;;;;0.68;0.68;;;12.60;99.90;;;;;;4409246;32;20104;-70
2022/05/13 02:01:59;;;;;;;0.35;0.35;;;12.50;99.90;;;;;;4414977;32;20085;-71
2022/05/13 02:04:25;;;;;;;0.55;0.40;;;12.50;99.90;;;;;;4426206;32;20066;-70
2022/05/13 02:06:50;;;;;;;0.37;0.37;;;12.60;99.90;;;;;;4428337;32;20070;-71
2022/05/13 02:09:16;;;;;;;0.40;0.40;;;12.60;99.90;;;;;;4425521;32;20065;-70
2022/05/13 02:11:41;;;;;;;0.30;0.30;;;12.60;99.90;;;;;;4423208;32;20077;-71
2022/05/13 02:14:08;;;;;;;0.32;0.32;;;12.60;99.90;;;;;;4427907;32;20062;-70
2022/05/13 02:16:34;;;;;;;0.80;0.60;;;12.40;99.90;;;;;;4424002;32;20119;-70
2022/05/13 02:18:59;;;;;;;0.60;0.60;;;12.30;99.90;;;;;;4426681;32;20073;-71
2022/05/13 02:21:25;;;;;;;0.35;0.35;;;12.10;99.90;;;;;;4426198;32;20094;-71
2022/05/13 02:23:52;;;;;;;0.68;0.68;;;12.20;99.90;;;;;;4427227;32;20106;-71
2022/05/13 02:26:17;;;;;;;0.30;0.30;;;12.30;99.90;;;;;;4428319;32;20074;-71
2022/05/13 02:28:44;;;;;;;0.50;0.50;;;12.50;99.90;;;;;;4413363;32;20090;-71
2022/05/13 02:31:10;;;;;;;0.35;0.35;;;12.20;99.90;;;;;;4408518;32;20094;-70
2022/05/13 02:33:36;;;;;;;0.37;0.37;;;12.10;99.90;;;;;;4424801;32;20074;-70
2022/05/13 02:36:04;;;;;;;0.55;0.55;;;12.10;99.90;;;;;;4425169;32;20082;-71
2022/05/13 02:38:31;;;;;;;0.32;0.32;;;12.10;99.90;;;;;;4424115;32;20085;-71
2022/05/13 02:41:12;;;;;;;0.40;0.40;;;12.10;99.90;;;;;;4425505;32;20742;-70
2022/05/13 02:43:40;;;;;;;0.30;0.30;;;12.10;99.90;;;;;;4425426;32;20124;-71
2022/05/13 02:46:06;;;;;;;0.55;0.50;;;12.20;99.90;;;;;;4418228;32;20106;-71
2022/05/13 02:48:31;;;;;;;0.40;0.40;;;12.10;99.90;;;;;;4428076;32;20508;-71
2022/05/13 02:50:57;;;;;;;0.45;0.35;;;12.20;99.90;;;;;;4425569;32;20086;-70
2022/05/13 02:53:23;;;;;;;0.40;0.40;;;12.20;99.90;;;;;;4426123;32;20069;-70
2022/05/13 02:55:49;;;;;;;0.20;0.20;;;12.20;99.90;;;;;;4420398;32;20066;-70
2022/05/13 02:58:14;;;;;;;0.40;0.40;;;12.10;99.90;;;;;;4418604;32;20123;-70
2022/05/13 03:00:40;;;;;;;0.73;0.73;;;11.90;99.90;;;;;;4408710;32;20128;-70
2022/05/13 03:03:06;;;;;;;6.22;0.65;;;11.90;99.90;;;;;;4423744;32;20077;-71
2022/05/13 03:05:33;;;;;;;0.40;0.40;;;11.80;99.90;;;;;;4426535;32;20089;-71
2022/05/13 03:08:01;;;;;;;0.98;0.50;;;11.80;99.90;;;;;;4424353;32;20073;-70
2022/05/13 03:10:27;;;;;;;0.40;0.40;;;11.70;99.90;;;;;;4423967;32;20064;-70
2022/05/13 03:12:53;;;;;;;0.30;0.30;;;11.80;99.90;;;;;;4425766;32;20513;-71
2022/05/13 03:15:18;;;;;;;3.40;0.52;;;11.90;99.90;;;;;;4425205;32;20074;-70
2022/05/13 03:17:44;;;;;;;0.30;0.30;;;11.90;99.90;;;;;;4421586;32;20116;-70
2022/05/13 03:20:14;;;;;;;2.25;0.85;;;11.90;99.90;;;;;;4426152;32;20179;-71
2022/05/13 03:22:40;;;;;;;0.47;0.47;;;12.00;99.90;;;;;;4423752;32;20533;-71
2022/05/13 03:25:06;;;;;;;0.47;0.47;;;11.90;99.90;;;;;;4425485;32;20069;-70
2022/05/13 03:27:31;;;;;;;0.50;0.50;;;11.80;99.90;;;;;;4421625;32;20536;-71
2022/05/13 03:29:57;;;;;;;0.20;0.20;;;11.80;99.90;;;;;;4405421;32;20065;-71
2022/05/13 03:32:22;;;;;;;0.50;0.50;;;11.80;99.90;;;;;;4415317;32;20077;-71
2022/05/13 03:34:48;;;;;;;0.40;0.40;;;11.90;99.90;;;;;;4424673;32;20085;-70
2022/05/13 03:37:13;;;;;;;0.40;0.40;;;11.90;99.90;;;;;;4426774;32;20085;-71
2022/05/13 03:39:39;;;;;;;0.73;0.73;;;11.90;99.90;;;;;;4423268;32;20115;-72
2022/05/13 03:42:05;;;;;;;0.35;0.35;;;12.10;99.90;;;;;;4425664;32;20484;-71
2022/05/13 03:44:31;;;;;;;0.60;0.55;;;12.00;99.90;;;;;;4424310;32;20086;-70
2022/05/13 03:46:56;;;;;;;0.90;0.90;;;12.00;99.90;;;;;;4418864;32;20468;-71
2022/05/13 03:49:22;;;;;;;0.77;0.77;;;12.00;99.90;;;;;;4427169;32;20116;-71
2022/05/13 03:51:47;;;;;;;0.50;0.50;;;11.90;99.90;;;;;;4424349;32;20089;-70
2022/05/13 03:54:13;;;;;;;4.28;0.95;;;11.90;99.90;;;;;;4427188;32;20065;-70
2022/05/13 03:56:38;;;;;;;0.68;0.68;;;11.90;99.90;;;;;;4429970;32;20072;-71
2022/05/13 03:59:04;;;;;;;0.75;0.62;;;12.00;99.90;;;;;;4411424;32;20135;-71
2022/05/13 04:01:30;;;;;;;0.70;0.70;;;12.00;99.90;;;;;;4413100;32;20061;-71
2022/05/13 04:03:55;;;;;;;0.62;0.62;;;12.10;99.90;;;;;;4429142;32;20070;-71
2022/05/13 04:09:07;;;;;;;0.40;0.40;;;12.20;99.90;;;;;;4414123;32;20073;-70
2022/05/13 04:11:37;;;;;;;1.02;0.70;;;12.20;99.90;;;;;;4427926;32;20101;-71
2022/05/13 04:16:04;;;;;;;0.60;0.60;;;12.20;99.90;;;;;;4428484;32;20480;-71
2022/05/13 04:16:50;;;;;;;0.40;0.40;;;12.20;99.90;;;;;;4407862;32;20081;-71
2022/05/13 04:19:16;;;;;;;0.40;0.40;;;12.30;99.90;;;;;;4426474;32;20070;-70
2022/05/13 04:21:44;;;;;;;0.30;0.30;;;12.30;99.90;;;;;;4415089;32;20152;-70
2022/05/13 04:24:11;;;;;;;0.85;0.50;;;12.30;99.90;;;;;;4385430;32;20086;-71
2022/05/13 04:26:37;;;;;;;17.83;1.25;;;12.30;99.90;;;;;;4389331;32;20077;-70
2022/05/13 04:29:04;;;;;;;0.50;0.50;;;12.30;99.90;;;;;;4371738;32;20643;-71
2022/05/13 04:31:33;;;;;;;2.67;0.73;;;12.30;99.90;;;;;;4377242;32;20061;-71
2022/05/13 04:33:59;;;;;;;0.68;0.50;;;12.50;99.90;;;;;;4384666;32;20111;-70
2022/05/13 04:36:25;;;;;;;0.40;0.40;;;12.40;99.90;;;;;;4424898;32;20097;-70
2022/05/13 04:38:52;;;;;;;0.47;0.47;;;12.40;99.90;;;;;;4425283;32;20064;-71
2022/05/13 04:42:51;;;;;;;0.50;0.50;;;12.30;99.90;;;;;;4426515;32;20089;-70
2022/05/13 04:44:05;;;;;;;12.30;1.15;;;12.40;99.90;;;;;;4413352;32;20089;-71
2022/05/13 04:46:31;;;;;;;3.10;1.10;;;12.30;99.90;;;;;;4420902;32;20141;-70
2022/05/13 04:48:58;;;;;;;0.50;0.50;;;12.30;99.90;;;;;;4425669;32;20541;-70
2022/05/13 04:51:24;;;;;;;0.50;0.50;;;12.40;99.90;;;;;;4421171;32;20197;-70
2022/05/13 04:53:51;;;;;;;1.40;1.05;;;12.50;99.90;;;;;;4382138;32;20470;-70
2022/05/13 04:56:19;;;;;;;0.47;0.47;;;12.60;99.90;;;;;;4394753;32;20139;-71
2022/05/13 04:58:45;;;;;;;0.40;0.40;;;12.60;99.90;;;;;;4411083;32;20081;-70
2022/05/13 05:01:11;;;;;;;2.20;0.57;;;12.70;99.90;;;;;;4401911;32;20164;-70
2022/05/13 05:03:37;;;;;;;0.50;0.50;;;12.80;99.90;;;;;;4400439;32;20385;-70
2022/05/13 05:06:04;;;;;;;0.52;0.52;;;12.80;99.90;;;;;;4383099;32;20575;-71
2022/05/13 05:08:30;;;;;;;0.30;0.30;;;12.90;99.90;;;;;;4380367;32;20226;-71
2022/05/13 05:10:57;;;;;;;0.68;0.68;;;13.00;99.90;;;;;;4372576;32;20304;-70
2022/05/13 05:13:26;;;;;;;1.33;1.10;;;13.10;99.90;;;;;;4371638;32;20353;-71
2022/05/13 05:15:53;;;;;;;0.40;0.40;;;13.20;99.90;;;;;;4378454;32;20415;-70
2022/05/13 05:18:18;;;;;;;0.50;0.50;;;13.30;99.90;;;;;;4364447;32;20947;-71
2022/05/13 05:20:45;;;;;;;0.40;0.40;;;13.30;99.90;;;;;;4348262;32;20217;-70
2022/05/13 05:23:15;;;;;;;0.43;0.43;;;13.30;99.90;;;;;;4330429;32;20518;-71
2022/05/13 05:25:42;;;;;;;0.82;0.82;;;13.50;99.90;;;;;;4319406;32;20701;-71
2022/05/13 05:28:08;;;;;;;1.75;1.15;;;13.60;99.90;;;;;;4334590;32;20270;-72
2022/05/13 05:30:34;;;;;;;0.68;0.45;;;13.60;99.90;;;;;;4313470;32;20615;-70
2022/05/13 05:33:00;;;;;;;1.08;0.80;;;13.70;99.90;;;;;;4345482;32;20385;-71
2022/05/13 05:35:26;;;;;;;0.30;0.30;;;13.80;99.90;;;;;;4329961;32;21130;-71
2022/05/13 05:37:52;;;;;;;3.08;1.40;;;14.00;99.90;;;;;;4341647;32;20332;-71
2022/05/13 05:40:20;;;;;;;17.67;1.45;;;14.10;99.90;;;;;;4342229;32;20145;-71
2022/05/13 05:42:45;;;;;;;3.35;1.85;;;14.10;99.90;;;;;;4360040;32;20959;-70
2022/05/13 05:45:13;;;;;;;0.40;0.40;;;14.10;99.90;;;;;;4367532;32;20288;-70
2022/05/13 05:47:39;;;;;;;4.03;1.25;;;14.10;99.90;;;;;;4379232;32;20232;-70
2022/05/13 05:50:07;;;;;;;0.62;0.62;;;14.20;99.90;;;;;;4369835;32;20286;-70
2022/05/13 05:52:33;;;;;;;1.05;0.95;;;14.40;99.90;;;;;;4373336;32;20191;-71
2022/05/13 05:57:14;;;;;;;0.50;0.50;;;14.40;99.90;;;;;;4393970;32;20458;-70
2022/05/13 05:58:06;;;;;;;1.92;1.35;;;14.50;99.90;;;;;;4376900;32;20188;-71
2022/05/13 06:00:33;;;;;;;0.60;0.60;;;14.60;99.90;;;;;;4367021;32;20226;-70
2022/05/13 06:02:58;;;;;;;2.17;0.77;;;14.70;99.90;;;;;;4362589;32;20353;-70
2022/05/13 06:05:25;;;;;;;0.70;0.70;;;14.90;99.90;;;;;;4350010;32;20621;-71
2022/05/13 06:07:52;;;;;;;0.93;0.80;;;15.00;99.90;;;;;;4377825;32;20231;-70
2022/05/13 06:10:18;;;;;;;0.45;0.45;;;15.00;99.90;;;;;;4386478;32;20213;-71
2022/05/13 06:12:44;;;;;;;0.65;0.65;;;15.10;99.90;;;;;;4387955;32;20919;-71
2022/05/13 06:15:11;;;;;;;5.90;0.93;;;15.30;99.90;;;;;;4397262;32;20777;-71
2022/05/13 06:17:43;;;;;;;3.30;1.87;;;15.30;99.90;;;;;;4388107;32;20698;-71
2022/05/13 06:20:09;;;;;;;0.30;0.30;;;15.40;99.90;;;;;;4373630;32;20627;-71
2022/05/13 06:22:34;;;;;;;0.50;0.50;;;15.50;99.90;;;;;;4386267;32;20262;-71
2022/05/13 06:25:02;;;;;;;0.30;0.30;;;15.60;99.90;;;;;;4389279;32;20617;-70
2022/05/13 06:27:28;;;;;;;0.60;0.60;;;15.60;99.90;;;;;;4398742;32;20156;-71
2022/05/13 06:29:53;;;;;;;1.35;1.25;;;15.70;99.90;;;;;;4387631;32;20377;-71
2022/05/13 06:32:19;;;;;;;1.17;0.50;;;15.70;99.90;;;;;;4382431;32;20489;-71
2022/05/13 06:34:44;;;;;;;4.78;1.20;;;15.90;99.90;;;;;;4367072;32;20154;-71
2022/05/13 06:37:10;;;;;;;0.40;0.40;;;16.00;99.90;;;;;;4381151;32;20093;-71
2022/05/13 06:39:35;;;;;;;0.35;0.35;;;16.10;99.90;;;;;;4386831;32;20089;-71
2022/05/13 06:42:01;;;;;;;0.40;0.40;;;16.20;99.90;;;;;;4377107;32;20696;-71
2022/05/13 06:44:26;;;;;;;0.62;0.62;;;16.30;99.90;;;;;;4387446;32;20374;-70
2022/05/13 06:46:52;;;;;;;0.40;0.40;;;16.40;99.90;;;;;;4391552;32;20073;-71
2022/05/13 06:49:17;;;;;;;0.70;0.70;;;16.50;99.90;;;;;;4378355;32;20100;-71
2022/05/13 06:51:43;;;;;;;0.40;0.40;;;16.50;99.90;;;;;;4392784;32;20288;-71
2022/05/13 06:54:10;;;;;;;0.47;0.47;;;16.50;99.90;;;;;;4385754;32;20085;-71
2022/05/13 06:56:39;;;;;;;3.97;0.52;;;16.70;99.90;;;;;;4390386;32;20120;-71
2022/05/13 06:59:04;;;;;;;0.40;0.40;;;16.70;99.90;;;;;;4381134;32;20947;-70
2022/05/13 07:01:32;;;;;;;0.55;0.55;;;16.80;99.90;;;;;;4371920;32;20149;-70
2022/05/13 07:03:58;;;;;;;1.58;0.93;;;16.80;99.90;;;;;;4362182;32;20390;-70
2022/05/13 07:06:24;;;;;;;1.17;0.62;;;16.80;99.90;;;;;;4375015;32;20159;-70
2022/05/13 07:08:50;;;;;;;0.60;0.60;;;16.80;99.90;;;;;;4387953;32;20093;-70
2022/05/13 07:11:17;;;;;;;2.08;0.70;;;16.80;99.90;;;;;;4398621;32;20128;-70
2022/05/13 07:13:43;;;;;;;0.65;0.60;;;16.90;99.90;;;;;;4392384;32;20081;-70
2022/05/13 07:16:09;;;;;;;0.40;0.40;;;16.90;99.90;;;;;;4388343;32;20085;-70
2022/05/13 07:18:36;;;;;;;1.77;1.05;;;17.00;99.90;;;;;;4382341;32;20592;-71
2022/05/13 07:21:02;;;;;;;0.50;0.50;;;17.20;99.90;;;;;;4398045;32;20120;-70
2022/05/13 07:23:29;;;;;;;0.30;0.30;;;17.30;99.90;;;;;;4386959;32;20077;-70
2022/05/13 07:25:55;;;;;;;0.50;0.50;;;17.50;99.90;;;;;;4383974;32;20129;-69
2022/05/13 07:28:21;;;;;;;0.40;0.40;;;17.70;99.90;;;;;;4387787;32;21551;-70
2022/05/13 07:30:47;;;;;;;0.60;0.60;;;17.80;99.00;;;;;;4352428;32;20125;-71
2022/05/13 07:33:13;;;;;;;0.68;0.65;;;17.70;98.80;;;;;;4319886;32;20149;-73
2022/05/13 07:35:39;;;;;;;3.20;0.93;;;17.80;99.70;;;;;;4329503;32;89974;-72
2022/05/13 07:38:06;;;;;;;1.20;0.80;;;17.80;98.80;;;;;;4358899;32;20132;-72
2022/05/13 07:41:32;;;;;;;0.43;0.40;;;17.80;98.60;;;;;;4378468;32;20085;-71
2022/05/13 07:43:21;;;;;;;0.62;0.62;;;17.80;98.70;;;;;;4385465;32;20070;-72
2022/05/13 07:45:46;;;;;;;3.87;1.60;;;17.80;99.10;;;;;;4382213;32;20092;-72
2022/05/13 07:48:12;;;;;;;0.70;0.70;;;17.80;99.20;;;;;;4375168;32;20102;-72
2022/05/13 07:50:38;;;;;;;0.75;0.73;;;17.80;99.30;;;;;;4377983;32;20576;-72
2022/05/13 07:53:04;;;;;;;0.95;0.80;;;17.80;98.90;;;;;;4362887;32;21461;-71
2022/05/13 07:55:29;;;;;;;1.17;0.65;;;17.70;99.10;;;;;;4363846;32;20101;-71
2022/05/13 07:57:55;;;;;;;0.90;0.57;;;17.60;99.60;;;;;;4354815;32;20757;-72
2022/05/13 08:00:25;;;;;;;0.40;0.40;;;17.50;99.60;;;;;;4356323;32;20334;-72
2022/05/13 08:02:52;;;;;;;0.80;0.57;;;17.50;99.90;;;;;;4349028;32;20149;-73
2022/05/13 08:05:18;;;;;;;0.70;0.70;;;17.40;99.80;;;;;;4346357;32;20460;-72
2022/05/13 08:07:43;;;;;;;0.50;0.50;;;17.30;99.80;;;;;;4355124;32;20308;-72
2022/05/13 08:10:10;;;;;;;0.55;0.52;;;17.30;99.90;;;;;;4375608;32;20104;-72
2022/05/13 08:12:36;;;;;;;0.40;0.40;;;17.20;99.90;;;;;;4381549;32;20094;-71
2022/05/13 08:15:02;;;;;;;1.20;0.75;;;17.20;99.60;;;;;;4372375;32;21907;-71
2022/05/13 08:17:33;;;;;;;1.33;0.82;;;17.10;99.90;;;;;;4367444;32;20841;-71
2022/05/13 08:19:58;;;;;;;0.50;0.50;;;17.00;99.70;;;;;;4364836;32;21287;-71
2022/05/13 08:22:25;;;;;;;0.50;0.50;;;17.00;99.90;;;;;;4363857;32;20820;-72
2022/05/13 08:24:50;;;;;;;0.50;0.50;;;17.00;99.80;;;;;;4357101;32;20093;-72
2022/05/13 08:27:16;;;;;;;1.95;1.17;;;17.00;99.90;;;;;;4375317;32;21537;-72
2022/05/13 08:29:41;;;;;;;2.15;0.93;;;17.10;99.90;;;;;;4356078;32;20113;-72
2022/05/13 08:32:08;;;;;;;0.77;0.73;;;17.10;99.90;;;;;;4363910;32;20103;-72
2022/05/13 08:34:33;;;;;;;0.75;0.70;;;17.20;99.90;;;;;;4341857;32;20563;-71
2022/05/13 08:36:59;;;;;;;1.37;0.77;;;17.10;99.90;;;;;;4360633;32;20096;-71
2022/05/13 08:39:24;;;;;;;0.47;0.47;;;17.10;99.90;;;;;;4380716;32;20250;-72
2022/05/13 08:42:18;;;;;;;4.75;1.10;;;16.90;99.90;;;;;;4388884;32;20499;-72
2022/05/13 08:44:43;;;;;;;0.68;0.68;;;16.80;99.90;;;;;;4369159;32;20254;-71
2022/05/13 08:47:19;;;;;;;0.50;0.50;;;16.90;99.90;;;;;;4377349;32;20102;-73
2022/05/13 08:49:54;;;;;;;0.57;0.57;;;16.80;99.90;;;;;;4373827;32;20319;-73
2022/05/13 08:53:06;;;;;;;0.68;0.68;;;16.60;99.90;;;;;;4378890;32;20849;-72
2022/05/13 08:55:42;;;;;;;0.40;0.40;;;16.60;99.90;;;;;;4345067;32;20188;-72
2022/05/13 08:58:12;;;;;;;5.15;1.95;;;16.60;99.90;;;;;;4373423;32;21189;-71
2022/05/13 09:00:45;;;;;;;0.60;0.60;;;16.60;99.90;;;;;;4366201;32;20599;-71
2022/05/13 09:03:25;;;;;;;0.65;0.65;;;16.90;99.90;;;;;;4339506;32;20234;-71
2022/05/13 09:06:11;;;;;;;0.30;0.30;;;17.10;99.90;;;;;;4309371;32;20470;-72
2022/05/13 09:08:38;;;;;;;0.73;0.73;;;17.20;99.90;;;;;;4355253;32;20108;-71
2022/05/13 09:11:10;;;;;;;2.10;0.93;;;17.40;99.90;;;;;;4373787;32;20120;-72
2022/05/13 09:13:49;;;;;;;0.93;0.77;;;17.50;99.60;;;;;;4370218;32;20077;-73
2022/05/13 09:16:29;;;;;;;0.50;0.50;;;17.70;99.70;;;;;;4370523;32;20251;-72
2022/05/13 09:19:01;;;;;;;0.50;0.50;;;17.80;97.80;;;;;;4354702;32;20137;-72
2022/05/13 09:21:27;;;;;;;0.60;0.60;;;17.80;98.20;;;;;;4344775;32;20420;-72
2022/05/13 09:23:53;;;;;;;0.52;0.43;;;18.00;97.50;;;;;;4353822;32;20815;-72
2022/05/13 09:26:22;;;;;;;0.93;0.80;;;18.00;96.30;;;;;;4370047;32;20299;-71
2022/05/13 09:29:07;;;;;;;0.30;0.30;;;18.10;96.60;;;;;;4374553;32;20284;-72
2022/05/13 09:31:37;;;;;;;0.47;0.47;;;18.10;95.50;;;;;;4361241;32;20379;-71
2022/05/13 09:34:14;;;;;;;0.30;0.30;;;18.00;95.50;;;;;;4345500;32;20254;-71
2022/05/13 09:36:40;;;;;;;0.40;0.40;;;18.10;95.30;;;;;;4364530;32;20077;-73
2022/05/13 09:39:24;;;;;;;0.52;0.52;;;18.10;94.20;;;;;;4381172;32;20485;-72
2022/05/13 09:41:52;;;;;;;0.30;0.30;;;18.10;94.40;;;;;;4379884;32;20227;-72
2022/05/13 09:44:22;;;;;;;0.52;0.50;;;18.00;94.70;;;;;;4382542;32;20097;-71
2022/05/13 09:46:51;;;;;;;0.60;0.60;;;18.20;94.70;;;;;;4381385;32;20621;-70
2022/05/13 09:49:21;;;;;;;0.50;0.50;;;18.30;94.60;;;;;;4372098;32;20646;-70
2022/05/13 09:52:08;;;;;;;0.50;0.50;;;18.30;94.60;;;;;;4354121;32;20455;-71
2022/05/13 09:54:36;;;;;;;0.30;0.30;;;18.30;94.50;;;;;;4357203;32;20456;-70
2022/05/13 09:57:08;;;;;;;0.40;0.40;;;18.10;94.80;;;;;;4379591;32;20112;-72
2022/05/13 09:59:40;;;;;;;0.80;0.80;;;18.10;95.10;;;;;;4378577;32;20104;-70
2022/05/13 10:02:20;;;;;;;0.57;0.57;;;18.20;95.60;;;;;;4364955;32;20355;-72
2022/05/13 10:04:52;;;;;;;0.40;0.40;;;18.20;94.90;;;;;;4340515;32;20342;-70
2022/05/13 10:07:20;;;;;;;0.30;0.30;;;18.50;95.10;;;;;;4367622;32;20129;-73
2022/05/13 10:14:13;;;;;;;0.50;0.50;;;18.60;95.50;;;;;;4371730;32;20101;-72
2022/05/13 10:15:40;;;;;;;0.57;0.50;;;18.60;95.00;;;;;;4355344;32;20117;-72
2022/05/13 10:18:29;;;;;;;0.50;0.50;;;18.50;94.90;;;;;;4361019;32;20374;-71
2022/05/13 10:21:04;;;;;;;2.28;0.93;;;18.60;95.30;;;;;;4339243;32;20282;-70
2022/05/13 10:24:09;;;;;;;0.60;0.60;;;18.80;95.00;;;;;;4355741;32;20453;-72
2022/05/13 10:26:39;;;;;;;0.40;0.40;;;19.00;94.60;;;;;;4339101;32;20110;-70
2022/05/13 10:29:19;;;;;;;0.30;0.30;;;19.20;94.80;;;;;;4362440;32;20240;-70
2022/05/13 10:31:46;;;;;;;1.35;0.55;;;19.30;93.30;;;;;;4367787;32;20221;-70
2022/05/13 10:34:35;;;;;;;0.82;0.60;;;19.30;93.50;;;;;;4356452;32;21205;-71
2022/05/13 10:37:24;;;;;;;0.52;0.52;;;19.10;93.70;;;;;;4354940;32;20173;-71
2022/05/13 10:40:11;;;;;;;0.47;0.47;;;19.00;94.10;;;;;;4371067;32;20209;-71
2022/05/13 10:42:42;;;;;;;0.30;0.30;;;19.30;93.30;;;;;;4389566;32;20755;-70
2022/05/13 10:45:20;;;;;;;0.40;0.40;;;19.50;92.70;;;;;;4380073;32;20110;-71
2022/05/13 10:48:06;;;;;;;2.30;1.20;;;19.90;92.50;;;;;;4374136;32;20934;-71
2022/05/13 10:50:38;;;;;;;0.28;0.28;;;19.90;93.20;;;;;;4355794;32;20178;-71
2022/05/13 10:53:27;;;;;;;0.30;0.30;;;20.10;93.40;;;;;;4347393;32;20161;-70
2022/05/13 10:56:04;;;;;;;0.43;0.43;;;20.10;92.00;;;;;;4359161;32;20377;-71
2022/05/13 10:58:44;;;;;;;0.40;0.40;;;20.00;91.60;;;;;;4360021;32;20288;-71
2022/05/13 11:01:32;;;;;;;0.20;0.20;;;19.70;91.20;;;;;;4366163;32;20124;-71
2022/05/13 11:04:19;;;;;;;0.40;0.40;;;19.20;91.10;;;;;;4336450;32;20381;-71
2022/05/13 11:07:17;;;;;;;0.37;0.37;;;19.20;92.00;;;;;;4351040;32;20296;-70
2022/05/13 11:09:57;;;;;;;0.20;0.20;;;19.20;90.80;;;;;;4364837;32;20130;-69
2022/05/13 11:12:37;;;;;;;0.65;0.30;;;19.50;90.20;;;;;;4377604;32;20098;-72
2022/05/13 11:15:13;;;;;;;1.93;0.83;;;20.00;89.10;;;;;;4371362;32;20708;-72
2022/05/13 11:17:51;;;;;;;3.40;1.67;;;20.10;88.40;;;;;;4367077;32;20093;-71
2022/05/13 11:20:30;;;;;;;0.37;0.37;;;20.60;86.80;;;;;;4355958;32;20403;-70
2022/05/13 11:23:01;;;;;;;0.20;0.20;;;21.10;85.10;;;;;;4331665;32;21186;-70
2022/05/13 11:26:00;;;;;;;3.00;0.45;;;20.60;85.60;;;;;;4365574;32;20171;-71
2022/05/13 11:29:05;;;;;;;9.73;0.85;;;20.40;85.40;;;;;;4368731;32;20171;-70
2022/05/13 11:31:37;;;;;;;0.37;0.30;;;20.40;83.50;;;;;;4349478;32;21721;-71
2022/05/13 11:34:23;;;;;;;0.62;0.62;;;20.50;82.00;;;;;;4354121;32;20560;-71
2022/05/13 11:37:02;;;;;;;0.70;0.60;;;20.60;80.40;;;;;;4355455;32;20089;-71
2022/05/13 11:39:38;;;;;;;0.50;0.50;;;20.80;81.30;;;;;;4369157;32;20113;-71
2022/05/13 11:42:25;;;;;;;0.30;0.30;;;21.30;79.00;;;;;;4365418;32;20600;-70
2022/05/13 11:45:09;;;;;;;0.37;0.37;;;21.10;80.40;;;;;;4363565;32;21030;-71
2022/05/13 11:47:51;;;;;;;2.15;0.50;;;20.50;80.90;;;;;;4379236;32;20101;-71
2022/05/13 11:50:17;;;;;;;0.30;0.30;;;20.00;82.30;;;;;;4357239;32;20555;-71
2022/05/13 11:52:46;;;;;;;2.75;0.93;;;19.90;83.30;;;;;;4343534;32;20244;-72
2022/05/13 11:55:20;;;;;;;0.30;0.30;;;19.70;84.50;;;;;;4375460;32;20186;-72
2022/05/13 11:57:50;;;;;;;0.68;0.52;;;19.50;86.20;;;;;;4385377;32;20167;-71
2022/05/13 12:00:34;;;;;;;0.62;0.62;;;19.40;87.40;;;;;;4379183;32;20831;-71
2022/05/13 12:03:14;;;;;;;0.52;0.50;;;19.30;88.40;;;;;;4372108;32;20459;-73
2022/05/13 12:06:01;;;;;;;0.60;0.60;;;19.20;88.60;;;;;;4365455;32;20522;-71
2022/05/13 12:08:38;;;;;;;1.90;0.70;;;19.70;88.50;;;;;;4386831;32;20092;-71
2022/05/13 12:11:13;;;;;;;0.75;0.55;;;19.70;87.10;;;;;;4391359;32;20109;-71
2022/05/13 12:13:48;;;;;;;0.75;0.75;;;19.70;86.50;;;;;;4393871;32;20876;-72
2022/05/13 12:16:36;;;;;;;2.00;0.98;;;19.40;87.80;;;;;;4391871;32;20332;-71
2022/05/13 12:19:32;;;;;;;0.57;0.57;;;19.10;88.40;;;;;;4376160;32;20637;-71
2022/05/13 12:22:20;;;;;;;3.05;0.62;;;18.90;88.40;;;;;;4345841;32;20118;-72
2022/05/13 12:25:00;;;;;;;0.40;0.40;;;19.10;87.70;;;;;;4357472;32;20207;-72
2022/05/13 12:27:34;;;;;;;1.15;0.60;;;19.20;86.80;;;;;;4373754;32;20378;-72
2022/05/13 12:30:07;;;;;;;0.40;0.40;;;19.60;85.20;;;;;;4367713;32;20059;-70
2022/05/13 12:32:45;;;;;;;0.57;0.43;;;20.00;85.70;;;;;;4361236;32;20299;-71
2022/05/13 12:38:08;;;;;;;0.30;0.30;;;19.70;83.50;;;;;;4379089;32;20224;-70
2022/05/13 12:40:41;;;;;;;0.50;0.50;;;19.20;84.30;;;;;;4393348;32;20247;-70
2022/05/13 12:43:32;;;;;;;2.40;0.75;;;18.70;85.90;;;;;;4393876;32;20352;-69
2022/05/13 12:46:13;;;;;;;0.40;0.40;;;18.60;86.70;;;;;;4383090;32;20124;-68
2022/05/13 12:48:53;;;;;;;;;;;18.70;86.80;;;;;;4387029;32;20647;-69
2022/05/13 12:51:20;;;;;;;0.30;0.30;;;18.60;86.30;;;;;;4365349;32;20728;-69
2022/05/13 12:53:50;;;;;;;0.30;0.30;;;18.60;86.50;;;;;;4360799;32;20584;-68
2022/05/13 12:56:32;;;;;;;0.70;0.68;;;18.60;86.50;;;;;;4401612;32;20069;-67
2022/05/13 12:59:04;;;;;;;0.62;0.45;;;18.50;87.90;;;;;;4383180;32;20279;-69
2022/05/13 13:01:30;;;;;;;0.30;0.30;;;18.30;88.10;;;;;;4387747;32;20656;-68
2022/05/13 13:03:57;;;;;;;0.40;0.40;;;18.30;89.30;;;;;;4351891;32;20073;-68
2022/05/13 13:06:23;;;;;;;0.30;0.30;;;18.40;89.20;;;;;;4371178;32;20612;-68
2022/05/13 13:08:51;;;;;;;0.30;0.30;;;18.40;89.00;;;;;;4400588;32;20135;-68
2022/05/13 13:11:29;;;;;;;0.40;0.40;;;18.40;89.60;;;;;;4403461;32;20683;-68
2022/05/13 13:14:07;;;;;;;1.25;0.90;;;18.40;89.90;;;;;;4397817;32;20140;-67